DLH322 EDDF-LICJ
Flight info
| Callsign | DLH322 |
|---|---|
| Flight time | 1h 52m |
| Altitude | 35000 |
| Route | ANEKI2L ANEKI Y163 NATOR DCT TRA DCT RIPUS DCT GERSA/N0444F370 DCT SOSON DCT ODINA DCT ELB DCT VELAD DCT TINTO DCT POKAV DCT BETOT DCT RUVIP DCT RONAB DCT GIANO |
| Aircraft | A321/M-SDE2E3FGIJ1LORWXYZ/HB1 |
Departure
| Time | 2026-04-16 03:35 |
|---|---|
| Airport | Frankfurt Main Airport (EDDF) |
Arrival
| Time | 2026-04-16 05:28 |
|---|---|
| Airport | Falcone–Borsellino Airport (LICJ) |
| Time | Latitude | Longitude | Altitude | Speed | Heading |
|---|---|---|---|---|---|
| 2026-04-16 03:02 | 50.04698 | 8.57094 | 362 ft | 0 kts | 115° |
| 2026-04-16 03:22 | 50.04707 | 8.57064 | 358 ft | 4 kts | 115° |
| 2026-04-16 03:22 | 50.04711 | 8.57050 | 356 ft | 0 kts | 115° |
| 2026-04-16 03:24 | 50.04718 | 8.57028 | 359 ft | 3 kts | 115° |
| 2026-04-16 03:24 | 50.04727 | 8.57004 | 361 ft | 3 kts | 156° |
| 2026-04-16 03:24 | 50.04744 | 8.57001 | 362 ft | 2 kts | 197° |
| 2026-04-16 03:24 | 50.04761 | 8.57009 | 361 ft | 2 kts | 197° |
| 2026-04-16 03:25 | 50.04769 | 8.57013 | 361 ft | 0 kts | 197° |
| 2026-04-16 03:26 | 50.04763 | 8.57010 | 361 ft | 2 kts | 197° |
| 2026-04-16 03:26 | 50.04747 | 8.57001 | 362 ft | 3 kts | 200° |
| 2026-04-16 03:26 | 50.04720 | 8.56984 | 358 ft | 5 kts | 203° |
| 2026-04-16 03:27 | 50.04684 | 8.56958 | 362 ft | 7 kts | 204° |
| 2026-04-16 03:27 | 50.04637 | 8.56925 | 361 ft | 8 kts | 202° |
| 2026-04-16 03:27 | 50.04580 | 8.56900 | 360 ft | 9 kts | 193° |
| 2026-04-16 03:27 | 50.04531 | 8.56884 | 359 ft | 7 kts | 192° |
| 2026-04-16 03:28 | 50.04479 | 8.56862 | 362 ft | 8 kts | 203° |
| 2026-04-16 03:28 | 50.04441 | 8.56788 | 363 ft | 10 kts | 248° |
| 2026-04-16 03:28 | 50.04415 | 8.56674 | 358 ft | 13 kts | 250° |
| 2026-04-16 03:28 | 50.04383 | 8.56536 | 360 ft | 15 kts | 250° |
| 2026-04-16 03:29 | 50.04344 | 8.56377 | 360 ft | 17 kts | 249° |
| 2026-04-16 03:29 | 50.04301 | 8.56200 | 356 ft | 18 kts | 249° |
| 2026-04-16 03:29 | 50.04255 | 8.56005 | 363 ft | 20 kts | 250° |
| 2026-04-16 03:29 | 50.04204 | 8.55793 | 360 ft | 22 kts | 250° |
| 2026-04-16 03:30 | 50.04150 | 8.55565 | 358 ft | 23 kts | 250° |
| 2026-04-16 03:30 | 50.04094 | 8.55328 | 358 ft | 23 kts | 249° |
| 2026-04-16 03:30 | 50.04037 | 8.55090 | 360 ft | 24 kts | 250° |
| 2026-04-16 03:30 | 50.03979 | 8.54848 | 359 ft | 24 kts | 249° |
| 2026-04-16 03:31 | 50.03918 | 8.54596 | 351 ft | 24 kts | 249° |
| 2026-04-16 03:31 | 50.03852 | 8.54350 | 350 ft | 25 kts | 240° |
| 2026-04-16 03:31 | 50.03773 | 8.54108 | 351 ft | 25 kts | 250° |
| 2026-04-16 03:31 | 50.03711 | 8.53850 | 348 ft | 23 kts | 250° |
| 2026-04-16 03:32 | 50.03652 | 8.53607 | 348 ft | 25 kts | 249° |
| 2026-04-16 03:32 | 50.03589 | 8.53352 | 338 ft | 26 kts | 249° |
| 2026-04-16 03:34 | 50.03382 | 8.52607 | 334 ft | 7 kts | 217° |
| 2026-04-16 03:34 | 50.03335 | 8.52595 | 336 ft | 0 kts | 178° |
| 2026-04-16 03:34 | 50.03317 | 8.52595 | 335 ft | 21 kts | 179° |
| 2026-04-16 03:34 | 50.02894 | 8.52599 | 332 ft | 98 kts | 180° |
| 2026-04-16 03:35 | 50.02006 | 8.52609 | 333 ft | 158 kts | 179° |
| 2026-04-16 03:35 | 50.00870 | 8.52615 | 959 ft | 159 kts | 180° |
| 2026-04-16 03:35 | 49.99753 | 8.52672 | 1709 ft | 162 kts | 180° |
| 2026-04-16 03:35 | 49.98574 | 8.52775 | 2081 ft | 181 kts | 180° |
| 2026-04-16 03:36 | 49.97244 | 8.52871 | 2352 ft | 202 kts | 180° |
| 2026-04-16 03:36 | 49.95764 | 8.52963 | 2585 ft | 223 kts | 180° |
| 2026-04-16 03:36 | 49.94180 | 8.53064 | 3192 ft | 230 kts | 180° |
| 2026-04-16 03:36 | 49.92600 | 8.53167 | 3970 ft | 231 kts | 180° |
| 2026-04-16 03:37 | 49.90987 | 8.53277 | 4752 ft | 233 kts | 180° |
| 2026-04-16 03:37 | 49.89356 | 8.53386 | 5512 ft | 236 kts | 180° |
| 2026-04-16 03:37 | 49.87700 | 8.53497 | 6230 ft | 240 kts | 180° |
| 2026-04-16 03:37 | 49.86013 | 8.53611 | 6919 ft | 245 kts | 180° |
| 2026-04-16 03:38 | 49.84299 | 8.53729 | 7624 ft | 248 kts | 180° |
| 2026-04-16 03:38 | 49.82570 | 8.53849 | 8355 ft | 250 kts | 180° |
| 2026-04-16 03:38 | 49.80823 | 8.53967 | 9085 ft | 252 kts | 180° |
| 2026-04-16 03:38 | 49.79063 | 8.54085 | 9812 ft | 255 kts | 180° |
| 2026-04-16 03:39 | 49.77280 | 8.54048 | 10350 ft | 264 kts | 187° |
| 2026-04-16 03:39 | 49.75398 | 8.53807 | 10541 ft | 286 kts | 187° |
| 2026-04-16 03:39 | 49.73337 | 8.53526 | 10698 ft | 309 kts | 187° |
| 2026-04-16 03:39 | 49.71118 | 8.53220 | 10849 ft | 330 kts | 187° |
| 2026-04-16 03:40 | 49.68801 | 8.52903 | 11308 ft | 338 kts | 187° |
| 2026-04-16 03:40 | 49.66446 | 8.52589 | 11914 ft | 341 kts | 187° |
| 2026-04-16 03:40 | 49.64069 | 8.52274 | 12539 ft | 345 kts | 188° |
| 2026-04-16 03:40 | 49.61666 | 8.51958 | 13172 ft | 348 kts | 188° |
| 2026-04-16 03:41 | 49.59248 | 8.51642 | 13816 ft | 351 kts | 188° |
| 2026-04-16 03:41 | 49.56809 | 8.51324 | 14381 ft | 354 kts | 188° |
| 2026-04-16 03:41 | 49.54378 | 8.51008 | 14935 ft | 356 kts | 188° |
| 2026-04-16 03:41 | 49.51901 | 8.50683 | 15504 ft | 359 kts | 188° |
| 2026-04-16 03:42 | 49.49407 | 8.50354 | 16063 ft | 361 kts | 188° |
| 2026-04-16 03:42 | 49.46894 | 8.50022 | 16637 ft | 364 kts | 188° |
| 2026-04-16 03:42 | 49.44361 | 8.49691 | 17187 ft | 366 kts | 189° |
| 2026-04-16 03:42 | 49.41814 | 8.49361 | 17716 ft | 369 kts | 188° |
| 2026-04-16 03:43 | 49.39241 | 8.49028 | 18241 ft | 372 kts | 189° |
| 2026-04-16 03:43 | 49.36650 | 8.48690 | 18732 ft | 375 kts | 189° |
| 2026-04-16 03:43 | 49.34041 | 8.48350 | 19182 ft | 378 kts | 189° |
| 2026-04-16 03:43 | 49.31412 | 8.48008 | 19633 ft | 381 kts | 189° |
| 2026-04-16 03:44 | 49.28796 | 8.47667 | 20071 ft | 384 kts | 189° |
| 2026-04-16 03:44 | 49.26126 | 8.47319 | 20513 ft | 387 kts | 189° |
| 2026-04-16 03:44 | 49.23435 | 8.46964 | 20945 ft | 389 kts | 189° |
| 2026-04-16 03:44 | 49.20728 | 8.46606 | 21353 ft | 392 kts | 189° |
| 2026-04-16 03:45 | 49.18002 | 8.46247 | 21771 ft | 395 kts | 189° |
| 2026-04-16 03:45 | 49.15252 | 8.45887 | 22197 ft | 398 kts | 189° |
| 2026-04-16 03:45 | 49.12488 | 8.45531 | 22610 ft | 400 kts | 189° |
| 2026-04-16 03:45 | 49.09739 | 8.45176 | 23006 ft | 403 kts | 189° |
| 2026-04-16 03:46 | 49.06938 | 8.44800 | 23399 ft | 405 kts | 191° |
| 2026-04-16 03:46 | 49.04179 | 8.43996 | 23785 ft | 404 kts | 197° |
| 2026-04-16 03:46 | 49.01435 | 8.43036 | 24132 ft | 406 kts | 197° |
| 2026-04-16 03:46 | 48.98670 | 8.42070 | 24470 ft | 408 kts | 197° |
| 2026-04-16 03:47 | 48.95897 | 8.41104 | 24814 ft | 410 kts | 197° |
| 2026-04-16 03:47 | 48.93108 | 8.40136 | 25174 ft | 412 kts | 197° |
| 2026-04-16 03:47 | 48.90308 | 8.39162 | 25538 ft | 414 kts | 197° |
| 2026-04-16 03:47 | 48.87497 | 8.38179 | 25893 ft | 416 kts | 197° |
| 2026-04-16 03:48 | 48.84672 | 8.37195 | 26241 ft | 417 kts | 197° |
| 2026-04-16 03:48 | 48.81873 | 8.36229 | 26584 ft | 419 kts | 197° |
| 2026-04-16 03:48 | 48.79022 | 8.35247 | 26929 ft | 421 kts | 197° |
| 2026-04-16 03:48 | 48.76158 | 8.34248 | 27252 ft | 423 kts | 197° |
| 2026-04-16 03:49 | 48.73292 | 8.33212 | 27565 ft | 425 kts | 198° |
| 2026-04-16 03:49 | 48.70415 | 8.32151 | 27888 ft | 426 kts | 198° |
| 2026-04-16 03:49 | 48.67531 | 8.31082 | 28212 ft | 428 kts | 198° |
| 2026-04-16 03:49 | 48.64631 | 8.30011 | 28540 ft | 430 kts | 198° |
| 2026-04-16 03:50 | 48.61721 | 8.28941 | 28862 ft | 432 kts | 198° |
| 2026-04-16 03:50 | 48.58836 | 8.27891 | 29188 ft | 433 kts | 197° |
| 2026-04-16 03:50 | 48.55895 | 8.26827 | 29505 ft | 435 kts | 197° |
| 2026-04-16 03:50 | 48.52944 | 8.25763 | 29817 ft | 437 kts | 197° |
| 2026-04-16 03:51 | 48.49930 | 8.25007 | 30119 ft | 443 kts | 188° |
| 2026-04-16 03:51 | 48.46826 | 8.24992 | 30391 ft | 450 kts | 179° |
| 2026-04-16 03:51 | 48.43707 | 8.25660 | 30627 ft | 454 kts | 174° |
| 2026-04-16 03:51 | 48.40586 | 8.26429 | 30870 ft | 455 kts | 175° |
| 2026-04-16 03:52 | 48.37457 | 8.27193 | 31122 ft | 456 kts | 175° |
| 2026-04-16 03:52 | 48.34323 | 8.27951 | 31343 ft | 457 kts | 174° |
| 2026-04-16 03:52 | 48.31180 | 8.28706 | 31557 ft | 458 kts | 174° |
| 2026-04-16 03:52 | 48.28038 | 8.29462 | 31824 ft | 457 kts | 175° |
| 2026-04-16 03:53 | 48.24950 | 8.30206 | 32116 ft | 455 kts | 175° |
| 2026-04-16 03:53 | 48.21829 | 8.30960 | 32443 ft | 454 kts | 175° |
| 2026-04-16 03:53 | 48.18714 | 8.31712 | 32758 ft | 452 kts | 175° |
| 2026-04-16 03:53 | 48.15611 | 8.32461 | 33059 ft | 451 kts | 175° |
| 2026-04-16 03:54 | 48.12517 | 8.33212 | 33355 ft | 450 kts | 175° |
| 2026-04-16 03:54 | 48.09428 | 8.33965 | 33633 ft | 449 kts | 175° |
| 2026-04-16 03:54 | 48.06346 | 8.34719 | 33924 ft | 448 kts | 175° |
| 2026-04-16 03:54 | 48.03267 | 8.35466 | 34216 ft | 447 kts | 175° |
| 2026-04-16 03:55 | 48.00199 | 8.36205 | 34473 ft | 446 kts | 175° |
| 2026-04-16 03:55 | 47.97177 | 8.36930 | 34703 ft | 446 kts | 175° |
| 2026-04-16 03:55 | 47.94112 | 8.37660 | 34924 ft | 445 kts | 175° |
| 2026-04-16 03:55 | 47.91050 | 8.38392 | 35126 ft | 445 kts | 175° |
| 2026-04-16 03:56 | 47.87991 | 8.39128 | 35246 ft | 445 kts | 175° |
| 2026-04-16 03:56 | 47.81933 | 8.40592 | 35273 ft | 439 kts | 175° |
| 2026-04-16 03:57 | 47.75913 | 8.42034 | 35271 ft | 438 kts | 175° |
| 2026-04-16 03:57 | 47.69935 | 8.43465 | 35253 ft | 438 kts | 175° |
| 2026-04-16 03:58 | 47.63907 | 8.44649 | 35274 ft | 436 kts | 178° |
| 2026-04-16 03:58 | 47.57866 | 8.45440 | 35277 ft | 436 kts | 179° |
| 2026-04-16 03:59 | 47.51823 | 8.46207 | 35281 ft | 436 kts | 179° |
| 2026-04-16 03:59 | 47.45819 | 8.47074 | 35269 ft | 437 kts | 178° |
| 2026-04-16 04:00 | 47.39767 | 8.47987 | 35274 ft | 437 kts | 178° |
| 2026-04-16 04:00 | 47.33712 | 8.48882 | 35281 ft | 438 kts | 178° |
| 2026-04-16 04:01 | 47.27652 | 8.49769 | 35282 ft | 438 kts | 178° |
| 2026-04-16 04:01 | 47.21629 | 8.50645 | 35284 ft | 438 kts | 178° |
| 2026-04-16 04:02 | 47.15561 | 8.51524 | 35279 ft | 438 kts | 178° |
| 2026-04-16 04:02 | 47.09490 | 8.52408 | 35283 ft | 439 kts | 178° |
| 2026-04-16 04:03 | 47.03417 | 8.53285 | 35275 ft | 439 kts | 178° |
| 2026-04-16 04:03 | 46.97378 | 8.54162 | 35266 ft | 439 kts | 178° |
| 2026-04-16 04:04 | 46.91266 | 8.55045 | 35445 ft | 444 kts | 178° |
| 2026-04-16 04:04 | 46.88193 | 8.55486 | 35618 ft | 444 kts | 178° |
| 2026-04-16 04:04 | 46.85120 | 8.55926 | 35837 ft | 444 kts | 178° |
| 2026-04-16 04:04 | 46.82044 | 8.56369 | 36018 ft | 444 kts | 178° |
| 2026-04-16 04:05 | 46.78972 | 8.56815 | 36244 ft | 444 kts | 178° |
| 2026-04-16 04:05 | 46.75900 | 8.57251 | 36507 ft | 442 kts | 178° |
| 2026-04-16 04:05 | 46.72845 | 8.57681 | 36751 ft | 441 kts | 178° |
| 2026-04-16 04:05 | 46.69835 | 8.58108 | 36959 ft | 440 kts | 177° |
| 2026-04-16 04:06 | 46.66793 | 8.58540 | 37191 ft | 440 kts | 178° |
| 2026-04-16 04:06 | 46.60705 | 8.59408 | 37244 ft | 439 kts | 177° |
| 2026-04-16 04:07 | 46.54627 | 8.60266 | 37236 ft | 439 kts | 177° |
| 2026-04-16 04:07 | 46.45515 | 8.61572 | 37224 ft | 439 kts | 177° |
| 2026-04-16 04:08 | 46.39476 | 8.62426 | 37210 ft | 439 kts | 178° |
| 2026-04-16 04:08 | 46.33399 | 8.63274 | 37212 ft | 440 kts | 177° |
| 2026-04-16 04:09 | 46.27307 | 8.64127 | 37201 ft | 439 kts | 178° |
| 2026-04-16 04:09 | 46.21214 | 8.64971 | 37201 ft | 440 kts | 177° |
| 2026-04-16 04:10 | 46.15161 | 8.65831 | 37212 ft | 440 kts | 177° |
| 2026-04-16 04:10 | 46.09115 | 8.67263 | 37212 ft | 444 kts | 165° |
| 2026-04-16 04:11 | 46.03301 | 8.70381 | 37180 ft | 446 kts | 162° |
| 2026-04-16 04:11 | 45.97499 | 8.73551 | 37179 ft | 446 kts | 162° |
| 2026-04-16 04:12 | 45.91735 | 8.76679 | 37195 ft | 446 kts | 162° |
| 2026-04-16 04:12 | 45.85928 | 8.79820 | 37185 ft | 446 kts | 162° |
| 2026-04-16 04:13 | 45.80124 | 8.82944 | 37183 ft | 446 kts | 161° |
| 2026-04-16 04:13 | 45.74316 | 8.86078 | 37185 ft | 446 kts | 161° |
| 2026-04-16 04:14 | 45.68547 | 8.89179 | 37184 ft | 446 kts | 162° |
| 2026-04-16 04:14 | 45.62736 | 8.92298 | 37186 ft | 446 kts | 161° |
| 2026-04-16 04:15 | 45.56929 | 8.95406 | 37182 ft | 446 kts | 161° |
| 2026-04-16 04:15 | 45.51116 | 8.98515 | 37178 ft | 446 kts | 161° |
| 2026-04-16 04:16 | 45.45293 | 9.01621 | 37178 ft | 447 kts | 161° |
| 2026-04-16 04:16 | 45.39508 | 9.04696 | 37171 ft | 447 kts | 161° |
| 2026-04-16 04:17 | 45.33668 | 9.07788 | 37176 ft | 448 kts | 161° |
| 2026-04-16 04:17 | 45.27828 | 9.10881 | 37175 ft | 448 kts | 161° |
| 2026-04-16 04:18 | 45.21982 | 9.13974 | 37178 ft | 448 kts | 161° |
| 2026-04-16 04:18 | 45.16176 | 9.17042 | 37182 ft | 449 kts | 161° |
| 2026-04-16 04:19 | 45.10326 | 9.20118 | 37181 ft | 449 kts | 161° |
| 2026-04-16 04:19 | 45.04470 | 9.23190 | 37183 ft | 449 kts | 160° |
| 2026-04-16 04:20 | 44.98608 | 9.26257 | 37172 ft | 450 kts | 160° |
| 2026-04-16 04:20 | 44.92724 | 9.29331 | 37175 ft | 451 kts | 160° |
| 2026-04-16 04:21 | 44.86869 | 9.32388 | 37172 ft | 452 kts | 160° |
| 2026-04-16 04:21 | 44.80968 | 9.35465 | 37183 ft | 452 kts | 160° |
| 2026-04-16 04:22 | 44.75060 | 9.38534 | 37174 ft | 453 kts | 160° |
| 2026-04-16 04:22 | 44.69130 | 9.41606 | 37174 ft | 455 kts | 160° |
| 2026-04-16 04:23 | 44.63228 | 9.44654 | 37175 ft | 455 kts | 160° |
| 2026-04-16 04:23 | 44.57280 | 9.47722 | 37166 ft | 456 kts | 159° |
| 2026-04-16 04:24 | 44.51314 | 9.50791 | 37162 ft | 457 kts | 159° |
| 2026-04-16 04:24 | 44.45340 | 9.53858 | 37164 ft | 458 kts | 159° |
| 2026-04-16 04:25 | 44.39360 | 9.56918 | 37164 ft | 458 kts | 159° |
| 2026-04-16 04:25 | 44.33410 | 9.59958 | 37162 ft | 458 kts | 159° |
| 2026-04-16 04:26 | 44.27423 | 9.63019 | 37149 ft | 458 kts | 159° |
| 2026-04-16 04:26 | 44.21431 | 9.66083 | 37146 ft | 458 kts | 159° |
| 2026-04-16 04:27 | 44.15430 | 9.69122 | 37138 ft | 459 kts | 159° |
| 2026-04-16 04:27 | 44.09466 | 9.72145 | 37129 ft | 459 kts | 159° |
| 2026-04-16 04:28 | 44.03455 | 9.75191 | 37128 ft | 460 kts | 159° |
| 2026-04-16 04:28 | 43.97442 | 9.78227 | 37130 ft | 460 kts | 159° |
| 2026-04-16 04:29 | 43.91411 | 9.81260 | 37132 ft | 461 kts | 159° |
| 2026-04-16 04:29 | 43.85374 | 9.84284 | 37137 ft | 462 kts | 158° |
| 2026-04-16 04:30 | 43.79364 | 9.87295 | 37133 ft | 463 kts | 158° |
| 2026-04-16 04:30 | 43.73304 | 9.90339 | 37126 ft | 464 kts | 158° |
| 2026-04-16 04:31 | 43.67227 | 9.93377 | 37126 ft | 465 kts | 158° |
| 2026-04-16 04:31 | 43.61146 | 9.96409 | 37126 ft | 465 kts | 158° |
| 2026-04-16 04:32 | 43.55095 | 9.99416 | 37126 ft | 466 kts | 158° |
| 2026-04-16 04:32 | 43.48990 | 10.02438 | 37121 ft | 466 kts | 158° |
| 2026-04-16 04:33 | 43.42883 | 10.05464 | 37120 ft | 467 kts | 158° |
| 2026-04-16 04:33 | 43.36764 | 10.08484 | 37120 ft | 468 kts | 158° |
| 2026-04-16 04:34 | 43.30672 | 10.11475 | 37120 ft | 468 kts | 158° |
| 2026-04-16 04:34 | 43.24541 | 10.14497 | 37115 ft | 468 kts | 158° |
| 2026-04-16 04:35 | 43.18405 | 10.17520 | 37121 ft | 468 kts | 158° |
| 2026-04-16 04:35 | 43.12266 | 10.20531 | 37134 ft | 469 kts | 157° |
| 2026-04-16 04:36 | 43.06152 | 10.23519 | 37108 ft | 471 kts | 157° |
| 2026-04-16 04:36 | 42.99977 | 10.26525 | 37102 ft | 471 kts | 157° |
| 2026-04-16 04:37 | 42.93791 | 10.29537 | 37098 ft | 473 kts | 157° |
| 2026-04-16 04:37 | 42.87592 | 10.32550 | 37102 ft | 473 kts | 157° |
| 2026-04-16 04:38 | 42.81384 | 10.35557 | 37107 ft | 474 kts | 157° |
| 2026-04-16 04:38 | 42.75204 | 10.38542 | 37117 ft | 474 kts | 157° |
| 2026-04-16 04:39 | 42.69013 | 10.41641 | 37111 ft | 474 kts | 155° |
| 2026-04-16 04:39 | 42.62904 | 10.45032 | 37109 ft | 474 kts | 153° |
| 2026-04-16 04:40 | 42.56813 | 10.48466 | 37102 ft | 474 kts | 154° |
| 2026-04-16 04:40 | 42.50729 | 10.51808 | 37112 ft | 475 kts | 154° |
| 2026-04-16 04:41 | 42.44592 | 10.55125 | 37109 ft | 475 kts | 154° |
| 2026-04-16 04:41 | 42.38443 | 10.58437 | 37122 ft | 475 kts | 154° |
| 2026-04-16 04:42 | 42.32302 | 10.61761 | 37114 ft | 475 kts | 154° |
| 2026-04-16 04:42 | 42.26205 | 10.65061 | 37108 ft | 475 kts | 154° |
| 2026-04-16 04:43 | 42.20064 | 10.68365 | 37106 ft | 475 kts | 154° |
| 2026-04-16 04:43 | 42.13924 | 10.71666 | 37106 ft | 475 kts | 154° |
| 2026-04-16 04:44 | 42.07782 | 10.74965 | 37106 ft | 475 kts | 154° |
| 2026-04-16 04:44 | 42.01633 | 10.78255 | 37100 ft | 476 kts | 154° |
| 2026-04-16 04:45 | 41.95518 | 10.81511 | 37099 ft | 476 kts | 154° |
| 2026-04-16 04:45 | 41.89365 | 10.84796 | 37098 ft | 476 kts | 154° |
| 2026-04-16 04:46 | 41.83203 | 10.88088 | 37095 ft | 477 kts | 154° |
| 2026-04-16 04:46 | 41.77036 | 10.91364 | 37092 ft | 477 kts | 154° |
| 2026-04-16 04:47 | 41.70902 | 10.94603 | 37094 ft | 477 kts | 154° |
| 2026-04-16 04:47 | 41.64727 | 10.97868 | 37101 ft | 478 kts | 154° |
| 2026-04-16 04:48 | 41.58540 | 11.01140 | 37095 ft | 478 kts | 154° |
| 2026-04-16 04:48 | 41.52345 | 11.04408 | 37093 ft | 479 kts | 154° |
| 2026-04-16 04:49 | 41.46145 | 11.07665 | 37091 ft | 479 kts | 154° |
| 2026-04-16 04:49 | 41.39981 | 11.10893 | 37095 ft | 480 kts | 154° |
| 2026-04-16 04:50 | 41.33761 | 11.14136 | 37097 ft | 480 kts | 154° |
| 2026-04-16 04:50 | 41.27544 | 11.17381 | 37097 ft | 480 kts | 154° |
| 2026-04-16 04:51 | 41.21325 | 11.20629 | 37112 ft | 481 kts | 155° |
| 2026-04-16 04:51 | 41.15140 | 11.23848 | 37104 ft | 481 kts | 155° |
| 2026-04-16 04:52 | 41.08909 | 11.27085 | 37101 ft | 481 kts | 155° |
| 2026-04-16 04:52 | 41.02678 | 11.30314 | 37113 ft | 481 kts | 155° |
| 2026-04-16 04:53 | 40.96469 | 11.33528 | 37095 ft | 476 kts | 155° |
| 2026-04-16 04:53 | 40.90355 | 11.36685 | 37090 ft | 475 kts | 155° |
| 2026-04-16 04:54 | 40.84196 | 11.39863 | 37093 ft | 475 kts | 155° |
| 2026-04-16 04:54 | 40.78036 | 11.43033 | 37098 ft | 475 kts | 155° |
| 2026-04-16 04:55 | 40.71870 | 11.46200 | 37091 ft | 476 kts | 155° |
| 2026-04-16 04:55 | 40.65699 | 11.49361 | 37092 ft | 476 kts | 155° |
| 2026-04-16 04:56 | 40.59563 | 11.52494 | 37095 ft | 476 kts | 155° |
| 2026-04-16 04:56 | 40.53389 | 11.55637 | 37095 ft | 476 kts | 156° |
| 2026-04-16 04:57 | 40.47216 | 11.58785 | 37096 ft | 476 kts | 156° |
| 2026-04-16 04:57 | 40.41040 | 11.61927 | 37094 ft | 476 kts | 156° |
| 2026-04-16 04:58 | 40.34904 | 11.65035 | 37094 ft | 476 kts | 156° |
| 2026-04-16 04:58 | 40.28733 | 11.68151 | 37110 ft | 475 kts | 156° |
| 2026-04-16 04:59 | 40.22560 | 11.71261 | 37096 ft | 475 kts | 156° |
| 2026-04-16 04:59 | 40.16399 | 11.74361 | 37094 ft | 474 kts | 156° |
| 2026-04-16 05:00 | 40.10244 | 11.77452 | 37088 ft | 474 kts | 156° |
| 2026-04-16 05:00 | 40.04135 | 11.80511 | 37085 ft | 473 kts | 156° |
| 2026-04-16 05:01 | 39.97990 | 11.83591 | 37045 ft | 473 kts | 156° |
| 2026-04-16 05:01 | 39.94923 | 11.85129 | 36595 ft | 473 kts | 156° |
| 2026-04-16 05:01 | 39.91854 | 11.86663 | 35979 ft | 472 kts | 156° |
| 2026-04-16 05:02 | 39.88801 | 11.88188 | 35446 ft | 469 kts | 156° |
| 2026-04-16 05:02 | 39.85764 | 11.89718 | 34933 ft | 466 kts | 155° |
| 2026-04-16 05:02 | 39.83785 | 11.90768 | 34591 ft | 463 kts | 154° |
| 2026-04-16 05:02 | 39.79884 | 11.92956 | 33904 ft | 459 kts | 152° |
| 2026-04-16 05:03 | 39.76980 | 11.94637 | 33382 ft | 455 kts | 152° |
| 2026-04-16 05:03 | 39.74106 | 11.96309 | 32890 ft | 450 kts | 152° |
| 2026-04-16 05:03 | 39.71258 | 11.97949 | 32389 ft | 446 kts | 153° |
| 2026-04-16 05:04 | 39.66578 | 12.00607 | 31580 ft | 438 kts | 153° |
| 2026-04-16 05:04 | 39.63792 | 12.02169 | 31109 ft | 433 kts | 153° |
| 2026-04-16 05:04 | 39.61041 | 12.03704 | 30627 ft | 429 kts | 153° |
| 2026-04-16 05:04 | 39.58314 | 12.05225 | 30167 ft | 424 kts | 154° |
| 2026-04-16 05:05 | 39.54756 | 12.07212 | 29515 ft | 416 kts | 153° |
| 2026-04-16 05:05 | 39.52122 | 12.08682 | 29084 ft | 409 kts | 153° |
| 2026-04-16 05:05 | 39.49532 | 12.10126 | 28669 ft | 402 kts | 153° |
| 2026-04-16 05:05 | 39.47835 | 12.11070 | 28387 ft | 398 kts | 153° |
| 2026-04-16 05:06 | 39.45314 | 12.12475 | 27979 ft | 392 kts | 153° |
| 2026-04-16 05:06 | 39.42829 | 12.13861 | 27579 ft | 386 kts | 153° |
| 2026-04-16 05:06 | 39.40376 | 12.15224 | 27189 ft | 381 kts | 153° |
| 2026-04-16 05:06 | 39.37958 | 12.16569 | 26803 ft | 376 kts | 153° |
| 2026-04-16 05:07 | 39.34805 | 12.18326 | 26295 ft | 370 kts | 153° |
| 2026-04-16 05:07 | 39.32458 | 12.19635 | 25907 ft | 365 kts | 153° |
| 2026-04-16 05:07 | 39.30890 | 12.20506 | 25648 ft | 362 kts | 153° |
| 2026-04-16 05:07 | 39.28620 | 12.21764 | 25278 ft | 357 kts | 153° |
| 2026-04-16 05:08 | 39.26344 | 12.23020 | 24886 ft | 354 kts | 153° |
| 2026-04-16 05:08 | 39.24092 | 12.24265 | 24490 ft | 350 kts | 153° |
| 2026-04-16 05:08 | 39.21862 | 12.25503 | 24111 ft | 347 kts | 153° |
| 2026-04-16 05:08 | 39.19653 | 12.26734 | 23721 ft | 345 kts | 153° |
| 2026-04-16 05:09 | 39.17454 | 12.27954 | 23284 ft | 342 kts | 153° |
| 2026-04-16 05:09 | 39.15279 | 12.29153 | 22892 ft | 338 kts | 153° |
| 2026-04-16 05:09 | 39.13129 | 12.30338 | 22494 ft | 335 kts | 153° |
| 2026-04-16 05:09 | 39.11023 | 12.31499 | 22113 ft | 333 kts | 153° |
| 2026-04-16 05:10 | 39.08902 | 12.32668 | 21708 ft | 331 kts | 153° |
| 2026-04-16 05:10 | 39.06794 | 12.33829 | 21316 ft | 329 kts | 153° |
| 2026-04-16 05:10 | 39.04696 | 12.34984 | 20926 ft | 327 kts | 153° |
| 2026-04-16 05:10 | 39.02612 | 12.36131 | 20540 ft | 325 kts | 153° |
| 2026-04-16 05:11 | 39.00534 | 12.37272 | 20149 ft | 323 kts | 153° |
| 2026-04-16 05:11 | 38.98474 | 12.38405 | 19765 ft | 322 kts | 153° |
| 2026-04-16 05:11 | 38.96421 | 12.39532 | 19384 ft | 320 kts | 153° |
| 2026-04-16 05:11 | 38.94403 | 12.40637 | 19004 ft | 318 kts | 153° |
| 2026-04-16 05:12 | 38.92372 | 12.41750 | 18629 ft | 317 kts | 154° |
| 2026-04-16 05:12 | 38.90352 | 12.42858 | 18233 ft | 315 kts | 154° |
| 2026-04-16 05:12 | 38.88343 | 12.43958 | 17821 ft | 313 kts | 154° |
| 2026-04-16 05:12 | 38.86351 | 12.45055 | 17442 ft | 310 kts | 153° |
| 2026-04-16 05:13 | 38.84393 | 12.46191 | 17060 ft | 308 kts | 152° |
| 2026-04-16 05:13 | 38.82461 | 12.47356 | 16701 ft | 306 kts | 151° |
| 2026-04-16 05:13 | 38.80548 | 12.48529 | 16329 ft | 304 kts | 151° |
| 2026-04-16 05:13 | 38.78648 | 12.49697 | 15961 ft | 302 kts | 151° |
| 2026-04-16 05:14 | 38.76778 | 12.50838 | 15608 ft | 301 kts | 152° |
| 2026-04-16 05:14 | 38.74891 | 12.51981 | 15242 ft | 300 kts | 152° |
| 2026-04-16 05:14 | 38.73010 | 12.53114 | 14885 ft | 298 kts | 152° |
| 2026-04-16 05:14 | 38.71139 | 12.54241 | 14519 ft | 297 kts | 152° |
| 2026-04-16 05:15 | 38.69274 | 12.55361 | 14157 ft | 295 kts | 152° |
| 2026-04-16 05:15 | 38.67420 | 12.56470 | 13807 ft | 294 kts | 152° |
| 2026-04-16 05:15 | 38.65574 | 12.57578 | 13434 ft | 292 kts | 152° |
| 2026-04-16 05:15 | 38.63740 | 12.58678 | 13075 ft | 290 kts | 152° |
| 2026-04-16 05:16 | 38.61916 | 12.59771 | 12719 ft | 289 kts | 152° |
| 2026-04-16 05:16 | 38.60100 | 12.60858 | 12378 ft | 287 kts | 152° |
| 2026-04-16 05:16 | 38.58295 | 12.61937 | 12027 ft | 286 kts | 152° |
| 2026-04-16 05:16 | 38.56522 | 12.62995 | 11694 ft | 284 kts | 152° |
| 2026-04-16 05:17 | 38.54736 | 12.64063 | 11350 ft | 283 kts | 152° |
| 2026-04-16 05:17 | 38.52957 | 12.65127 | 11009 ft | 282 kts | 152° |
| 2026-04-16 05:17 | 38.51184 | 12.66184 | 10664 ft | 280 kts | 152° |
| 2026-04-16 05:17 | 38.49420 | 12.67231 | 10329 ft | 279 kts | 152° |
| 2026-04-16 05:18 | 38.47661 | 12.68277 | 10197 ft | 286 kts | 152° |
| 2026-04-16 05:18 | 38.45828 | 12.69370 | 10076 ft | 293 kts | 152° |
| 2026-04-16 05:18 | 38.43968 | 12.70476 | 9713 ft | 295 kts | 152° |
| 2026-04-16 05:18 | 38.42141 | 12.71561 | 9341 ft | 292 kts | 152° |
| 2026-04-16 05:19 | 38.40311 | 12.72648 | 8976 ft | 289 kts | 152° |
| 2026-04-16 05:19 | 38.38495 | 12.73726 | 8623 ft | 287 kts | 152° |
| 2026-04-16 05:19 | 38.36690 | 12.74798 | 8272 ft | 286 kts | 152° |
| 2026-04-16 05:19 | 38.34892 | 12.75864 | 7921 ft | 284 kts | 152° |
| 2026-04-16 05:20 | 38.33111 | 12.76921 | 7571 ft | 281 kts | 152° |
| 2026-04-16 05:20 | 38.31353 | 12.77965 | 7225 ft | 278 kts | 152° |
| 2026-04-16 05:20 | 38.29609 | 12.78994 | 6895 ft | 275 kts | 152° |
| 2026-04-16 05:20 | 38.27883 | 12.80016 | 6545 ft | 272 kts | 152° |
| 2026-04-16 05:21 | 38.26196 | 12.81013 | 6202 ft | 269 kts | 152° |
| 2026-04-16 05:21 | 38.24530 | 12.81994 | 5868 ft | 258 kts | 152° |
| 2026-04-16 05:21 | 38.22925 | 12.82894 | 5541 ft | 244 kts | 153° |
| 2026-04-16 05:21 | 38.21400 | 12.83714 | 5193 ft | 235 kts | 153° |
| 2026-04-16 05:22 | 38.19944 | 12.84492 | 4954 ft | 220 kts | 153° |
| 2026-04-16 05:22 | 38.18549 | 12.85238 | 4663 ft | 215 kts | 153° |
| 2026-04-16 05:22 | 38.17187 | 12.85967 | 4394 ft | 210 kts | 154° |
| 2026-04-16 05:22 | 38.15855 | 12.86682 | 4147 ft | 204 kts | 154° |
| 2026-04-16 05:23 | 38.14582 | 12.87366 | 3885 ft | 194 kts | 153° |
| 2026-04-16 05:23 | 38.13379 | 12.88016 | 3636 ft | 187 kts | 153° |
| 2026-04-16 05:23 | 38.12256 | 12.88747 | 3404 ft | 176 kts | 136° |
| 2026-04-16 05:23 | 38.11617 | 12.89979 | 3184 ft | 164 kts | 103° |
| 2026-04-16 05:24 | 38.11610 | 12.91374 | 2954 ft | 157 kts | 73° |
| 2026-04-16 05:24 | 38.12021 | 12.92633 | 2751 ft | 152 kts | 66° |
| 2026-04-16 05:24 | 38.12439 | 12.93854 | 2533 ft | 149 kts | 66° |
| 2026-04-16 05:24 | 38.12846 | 12.95051 | 2335 ft | 147 kts | 66° |
| 2026-04-16 05:25 | 38.13249 | 12.96240 | 2135 ft | 146 kts | 66° |
| 2026-04-16 05:25 | 38.13650 | 12.97429 | 1941 ft | 146 kts | 66° |
| 2026-04-16 05:25 | 38.14045 | 12.98600 | 1746 ft | 147 kts | 66° |
| 2026-04-16 05:25 | 38.14447 | 12.99789 | 1576 ft | 146 kts | 65° |
| 2026-04-16 05:26 | 38.14844 | 13.00966 | 1370 ft | 144 kts | 65° |
| 2026-04-16 05:26 | 38.15234 | 13.02135 | 1173 ft | 144 kts | 66° |
| 2026-04-16 05:26 | 38.15621 | 13.03306 | 1015 ft | 144 kts | 65° |
| 2026-04-16 05:26 | 38.16001 | 13.04475 | 821 ft | 142 kts | 66° |
| 2026-04-16 05:27 | 38.16380 | 13.05629 | 630 ft | 140 kts | 65° |
| 2026-04-16 05:27 | 38.16769 | 13.06750 | 428 ft | 138 kts | 65° |
| 2026-04-16 05:27 | 38.17151 | 13.07845 | 263 ft | 137 kts | 65° |
| 2026-04-16 05:27 | 38.17531 | 13.08955 | 81 ft | 136 kts | 65° |
| 2026-04-16 05:28 | 38.17882 | 13.09998 | 51 ft | 116 kts | 66° |
| 2026-04-16 05:28 | 38.18102 | 13.10655 | 53 ft | 49 kts | 66° |
| 2026-04-16 05:28 | 38.18240 | 13.11048 | 51 ft | 48 kts | 65° |
| 2026-04-16 05:28 | 38.18368 | 13.11423 | 51 ft | 45 kts | 66° |
| 2026-04-16 05:29 | 38.18482 | 13.11772 | 53 ft | 33 kts | 66° |
| 2026-04-16 05:29 | 38.18559 | 13.11893 | 53 ft | 9 kts | 355° |
| 2026-04-16 05:29 | 38.18591 | 13.11842 | 53 ft | 8 kts | 290° |
| 2026-04-16 05:29 | 38.18602 | 13.11761 | 53 ft | 10 kts | 276° |
| 2026-04-16 05:30 | 38.18610 | 13.11664 | 51 ft | 12 kts | 277° |
| 2026-04-16 05:30 | 38.18610 | 13.11551 | 53 ft | 14 kts | 256° |
| 2026-04-16 05:30 | 38.18573 | 13.11431 | 53 ft | 15 kts | 245° |
| 2026-04-16 05:30 | 38.18527 | 13.11301 | 52 ft | 17 kts | 246° |
| 2026-04-16 05:31 | 38.18479 | 13.11155 | 53 ft | 19 kts | 247° |
| 2026-04-16 05:31 | 38.18429 | 13.11002 | 50 ft | 16 kts | 250° |
| 2026-04-16 05:31 | 38.18468 | 13.10887 | 53 ft | 15 kts | 292° |
| 2026-04-16 05:31 | 38.18503 | 13.10755 | 53 ft | 17 kts | 282° |
| 2026-04-16 05:32 | 38.18490 | 13.10648 | 52 ft | 8 kts | 294° |
| 2026-04-16 05:32 | 38.18535 | 13.10618 | 53 ft | 7 kts | 337° |
| 2026-04-16 05:32 | 38.18554 | 13.10608 | 53 ft | 0 kts | 337° |